Hlavní strana
METAR-TAF:

METAR-TAF

Letiště :

Damašek, Sýrie

zeměpisná šířka: 33-25N, zeměpisná délka: 036-31E, výška: 608 m

Aktuální stav počasí

Zpráva byla vytvořena před 33 minutami, v 09:00 UTC
Jihozápadní vítr 12 kt
Teplota 11°C
Vlhkost vzduchu 76%
Tlak 1015 hPa
Viditelnost: 8000 m
Skoro jasno ve výšce 2600 ft
Polojasno ve výšce 3000 ft
Oblačno až skoro zataženo ve výšce 3000 ft

METAR: OSDI 240900Z 22012KT 8000 FEW026 TCU SCT030 BKN030 11/07 Q1015

Čas: 11:33 (09:33 UTC)

Předpověď počasí

Předpověď platná od 24 v 06 UTC do 25 v 12 UTC
Jihozápadní vítr 10 kt
Viditelnost 10 km a více
Skoro jasno ve výšce 3000 ft
Dočasný
od 24 v 12 UTC do 25 v 12 UTC
Jihozápadní vítr 15 kt s nárazy do 25 kt
Viditelnost: 8000 m
Skoro jasno ve výšce 2500 ft
Polojasno ve výšce 3000 ft
Oblačno až skoro zataženo ve výšce 10000 ft
dešťové přeháňky

TAF: OSDI 2406/2512 22010KT 9999 FEW030 TEMPO 2412/2512 22015G25KT 8000 SHRA FEW025 CB SCT030 BKN100

Stav a předpovědi počasí z více než 4 000 letišť (zprávy METAR a TAF).

Červené a žluté tečky na mapě představují dostupné meteorologické stanice.

Když kurzor umístíte na tečku, zobrazí se název stanice.

Pak kliknutím zobrazíte stav a předpověď počasí.

Chcete-li změnit mapu, kliknutím na zelené tlačítko se znaménkem +mapu přiblížíte, kliknutím na zelené tlačítko se znaménkem – mapu oddálíte a kliknutím na zelené šipky přejdete na sousední mapy.


METAR-TAF: